sensor_id;sensor_type;location;lat;lon;timestamp;P1;durP1;ratioP1;P2;durP2;ratioP2
29370;SDS011;16357;52.188;7.838;2022-07-11T00:00:06;4.43;;;2.30;;
29370;SDS011;16357;52.188;7.838;2022-07-11T00:02:35;3.50;;;2.60;;
29370;SDS011;16357;52.188;7.838;2022-07-11T00:05:02;6.07;;;2.85;;
29370;SDS011;16357;52.188;7.838;2022-07-11T00:07:29;4.43;;;2.80;;
29370;SDS011;16357;52.188;7.838;2022-07-11T00:09:56;3.45;;;2.70;;
29370;SDS011;16357;52.188;7.838;2022-07-11T00:12:22;5.03;;;2.53;;
29370;SDS011;16357;52.188;7.838;2022-07-11T00:14:53;3.70;;;2.58;;
29370;SDS011;16357;52.188;7.838;2022-07-11T00:17:20;6.28;;;2.75;;
29370;SDS011;16357;52.188;7.838;2022-07-11T00:19:47;5.25;;;2.90;;
29370;SDS011;16357;52.188;7.838;2022-07-11T00:22:14;5.78;;;3.00;;
29370;SDS011;16357;52.188;7.838;2022-07-11T00:24:41;3.20;;;2.35;;
29370;SDS011;16357;52.188;7.838;2022-07-11T00:27:07;3.53;;;2.80;;
29370;SDS011;16357;52.188;7.838;2022-07-11T00:29:34;4.80;;;2.47;;
29370;SDS011;16357;52.188;7.838;2022-07-11T00:32:00;4.85;;;2.75;;
29370;SDS011;16357;52.188;7.838;2022-07-11T00:34:27;3.85;;;2.42;;
29370;SDS011;16357;52.188;7.838;2022-07-11T00:36:53;5.38;;;2.65;;
29370;SDS011;16357;52.188;7.838;2022-07-11T00:39:20;5.70;;;3.15;;
29370;SDS011;16357;52.188;7.838;2022-07-11T00:41:46;9.27;;;3.42;;
29370;SDS011;16357;52.188;7.838;2022-07-11T00:44:13;4.22;;;2.92;;
29370;SDS011;16357;52.188;7.838;2022-07-11T00:46:40;5.40;;;3.25;;
29370;SDS011;16357;52.188;7.838;2022-07-11T00:49:07;6.65;;;3.30;;
29370;SDS011;16357;52.188;7.838;2022-07-11T00:51:33;4.85;;;2.90;;
29370;SDS011;16357;52.188;7.838;2022-07-11T00:54:00;4.05;;;2.85;;
29370;SDS011;16357;52.188;7.838;2022-07-11T00:56:28;4.43;;;2.65;;
29370;SDS011;16357;52.188;7.838;2022-07-11T00:58:58;6.10;;;3.63;;
29370;SDS011;16357;52.188;7.838;2022-07-11T01:01:25;3.67;;;3.17;;
29370;SDS011;16357;52.188;7.838;2022-07-11T01:03:52;4.18;;;2.95;;
29370;SDS011;16357;52.188;7.838;2022-07-11T01:06:19;3.92;;;3.10;;
29370;SDS011;16357;52.188;7.838;2022-07-11T01:08:45;4.75;;;3.10;;
29370;SDS011;16357;52.188;7.838;2022-07-11T01:11:12;4.38;;;3.03;;
29370;SDS011;16357;52.188;7.838;2022-07-11T01:13:42;3.38;;;3.08;;
29370;SDS011;16357;52.188;7.838;2022-07-11T01:16:14;11.52;;;3.50;;
29370;SDS011;16357;52.188;7.838;2022-07-11T01:18:45;4.72;;;2.97;;
29370;SDS011;16357;52.188;7.838;2022-07-11T01:21:17;4.63;;;3.17;;
29370;SDS011;16357;52.188;7.838;2022-07-11T01:23:52;4.00;;;2.78;;
29370;SDS011;16357;52.188;7.838;2022-07-11T01:26:20;4.35;;;3.00;;
29370;SDS011;16357;52.188;7.838;2022-07-11T01:28:48;3.70;;;2.88;;
29370;SDS011;16357;52.188;7.838;2022-07-11T01:31:15;3.88;;;3.42;;
29370;SDS011;16357;52.188;7.838;2022-07-11T01:33:42;5.88;;;3.25;;
29370;SDS011;16357;52.188;7.838;2022-07-11T01:36:10;4.15;;;3.00;;
29370;SDS011;16357;52.188;7.838;2022-07-11T01:38:36;6.03;;;2.95;;
29370;SDS011;16357;52.188;7.838;2022-07-11T01:41:03;3.53;;;2.90;;
29370;SDS011;16357;52.188;7.838;2022-07-11T01:43:29;4.93;;;2.97;;
29370;SDS011;16357;52.188;7.838;2022-07-11T01:45:56;6.80;;;3.58;;
29370;SDS011;16357;52.188;7.838;2022-07-11T01:48:23;4.97;;;3.60;;
29370;SDS011;16357;52.188;7.838;2022-07-11T01:50:50;4.22;;;3.60;;
29370;SDS011;16357;52.188;7.838;2022-07-11T01:53:16;6.88;;;3.45;;
29370;SDS011;16357;52.188;7.838;2022-07-11T01:55:43;5.07;;;3.80;;
29370;SDS011;16357;52.188;7.838;2022-07-11T01:58:30;5.22;;;3.78;;
29370;SDS011;16357;52.188;7.838;2022-07-11T02:00:57;4.75;;;3.85;;
29370;SDS011;16357;52.188;7.838;2022-07-11T02:03:24;5.68;;;3.38;;
29370;SDS011;16357;52.188;7.838;2022-07-11T02:05:51;6.13;;;3.95;;
29370;SDS011;16357;52.188;7.838;2022-07-11T02:08:18;7.45;;;3.72;;
29370;SDS011;16357;52.188;7.838;2022-07-11T02:10:45;3.70;;;3.35;;
29370;SDS011;16357;52.188;7.838;2022-07-11T02:13:20;5.82;;;3.72;;
29370;SDS011;16357;52.188;7.838;2022-07-11T02:15:47;6.25;;;3.58;;
29370;SDS011;16357;52.188;7.838;2022-07-11T02:18:17;6.03;;;4.03;;
29370;SDS011;16357;52.188;7.838;2022-07-11T02:20:45;6.60;;;4.10;;
29370;SDS011;16357;52.188;7.838;2022-07-11T02:23:12;6.57;;;4.40;;
29370;SDS011;16357;52.188;7.838;2022-07-11T02:25:38;8.25;;;4.28;;
29370;SDS011;16357;52.188;7.838;2022-07-11T02:28:05;6.47;;;3.47;;
29370;SDS011;16357;52.188;7.838;2022-07-11T02:30:39;9.05;;;4.25;;
29370;SDS011;16357;52.188;7.838;2022-07-11T02:33:08;5.00;;;4.03;;
29370;SDS011;16357;52.188;7.838;2022-07-11T02:35:37;6.88;;;4.40;;
29370;SDS011;16357;52.188;7.838;2022-07-11T02:38:04;5.05;;;4.15;;
29370;SDS011;16357;52.188;7.838;2022-07-11T02:40:30;8.18;;;4.30;;
29370;SDS011;16357;52.188;7.838;2022-07-11T02:42:57;6.88;;;4.18;;
29370;SDS011;16357;52.188;7.838;2022-07-11T02:45:23;7.75;;;4.68;;
29370;SDS011;16357;52.188;7.838;2022-07-11T02:47:50;7.63;;;4.10;;
29370;SDS011;16357;52.188;7.838;2022-07-11T02:50:17;6.45;;;3.97;;
29370;SDS011;16357;52.188;7.838;2022-07-11T02:52:43;7.80;;;3.83;;
29370;SDS011;16357;52.188;7.838;2022-07-11T02:55:10;5.38;;;3.95;;
29370;SDS011;16357;52.188;7.838;2022-07-11T02:57:38;5.47;;;3.78;;
29370;SDS011;16357;52.188;7.838;2022-07-11T03:00:07;6.28;;;4.28;;
29370;SDS011;16357;52.188;7.838;2022-07-11T03:02:43;5.28;;;3.85;;
29370;SDS011;16357;52.188;7.838;2022-07-11T03:05:11;7.30;;;4.10;;
29370;SDS011;16357;52.188;7.838;2022-07-11T03:07:39;6.65;;;3.90;;
29370;SDS011;16357;52.188;7.838;2022-07-11T03:10:06;7.43;;;4.32;;
29370;SDS011;16357;52.188;7.838;2022-07-11T03:12:32;7.15;;;4.07;;
29370;SDS011;16357;52.188;7.838;2022-07-11T03:14:59;6.45;;;3.47;;
29370;SDS011;16357;52.188;7.838;2022-07-11T03:17:26;6.38;;;3.78;;
29370;SDS011;16357;52.188;7.838;2022-07-11T03:19:52;4.03;;;3.50;;
29370;SDS011;16357;52.188;7.838;2022-07-11T03:22:19;6.63;;;3.67;;
29370;SDS011;16357;52.188;7.838;2022-07-11T03:24:46;6.45;;;3.92;;
29370;SDS011;16357;52.188;7.838;2022-07-11T03:27:12;7.28;;;3.60;;
29370;SDS011;16357;52.188;7.838;2022-07-11T03:29:39;7.80;;;3.85;;
29370;SDS011;16357;52.188;7.838;2022-07-11T03:32:07;3.78;;;3.35;;
29370;SDS011;16357;52.188;7.838;2022-07-11T03:34:35;6.90;;;3.35;;
29370;SDS011;16357;52.188;7.838;2022-07-11T03:37:02;7.32;;;3.63;;
29370;SDS011;16357;52.188;7.838;2022-07-11T03:39:29;5.97;;;3.35;;
29370;SDS011;16357;52.188;7.838;2022-07-11T03:41:55;5.18;;;3.38;;
29370;SDS011;16357;52.188;7.838;2022-07-11T03:44:22;3.20;;;2.80;;
29370;SDS011;16357;52.188;7.838;2022-07-11T03:46:48;6.40;;;3.28;;
29370;SDS011;16357;52.188;7.838;2022-07-11T03:49:15;6.38;;;2.75;;
29370;SDS011;16357;52.188;7.838;2022-07-11T03:51:42;5.30;;;2.72;;
29370;SDS011;16357;52.188;7.838;2022-07-11T03:54:08;5.28;;;3.25;;
29370;SDS011;16357;52.188;7.838;2022-07-11T03:56:35;6.82;;;2.92;;
29370;SDS011;16357;52.188;7.838;2022-07-11T03:59:01;4.18;;;2.85;;
29370;SDS011;16357;52.188;7.838;2022-07-11T04:01:28;3.70;;;2.65;;
29370;SDS011;16357;52.188;7.838;2022-07-11T04:03:55;5.82;;;3.10;;
29370;SDS011;16357;52.188;7.838;2022-07-11T04:06:21;7.00;;;2.65;;
29370;SDS011;16357;52.188;7.838;2022-07-11T04:08:48;3.45;;;2.10;;
29370;SDS011;16357;52.188;7.838;2022-07-11T04:11:14;5.93;;;2.33;;
29370;SDS011;16357;52.188;7.838;2022-07-11T04:13:41;3.72;;;2.10;;
29370;SDS011;16357;52.188;7.838;2022-07-11T04:16:09;3.42;;;2.13;;
29370;SDS011;16357;52.188;7.838;2022-07-11T04:18:35;3.08;;;2.00;;
29370;SDS011;16357;52.188;7.838;2022-07-11T04:21:02;2.75;;;2.38;;
29370;SDS011;16357;52.188;7.838;2022-07-11T04:23:34;3.45;;;2.20;;
29370;SDS011;16357;52.188;7.838;2022-07-11T04:26:00;4.28;;;2.13;;
29370;SDS011;16357;52.188;7.838;2022-07-11T04:28:27;3.08;;;1.70;;
29370;SDS011;16357;52.188;7.838;2022-07-11T04:30:53;2.65;;;1.90;;
29370;SDS011;16357;52.188;7.838;2022-07-11T04:33:20;3.25;;;2.25;;
29370;SDS011;16357;52.188;7.838;2022-07-11T04:35:46;2.40;;;1.95;;
29370;SDS011;16357;52.188;7.838;2022-07-11T04:38:13;4.40;;;2.25;;
29370;SDS011;16357;52.188;7.838;2022-07-11T04:40:39;3.40;;;2.40;;
29370;SDS011;16357;52.188;7.838;2022-07-11T04:43:06;4.15;;;2.42;;
29370;SDS011;16357;52.188;7.838;2022-07-11T04:45:32;3.53;;;2.40;;
29370;SDS011;16357;52.188;7.838;2022-07-11T04:47:59;3.17;;;2.28;;
29370;SDS011;16357;52.188;7.838;2022-07-11T04:50:28;2.42;;;2.22;;
29370;SDS011;16357;52.188;7.838;2022-07-11T04:52:55;3.03;;;2.10;;
29370;SDS011;16357;52.188;7.838;2022-07-11T04:55:22;3.90;;;2.38;;
29370;SDS011;16357;52.188;7.838;2022-07-11T04:57:48;3.20;;;2.05;;
29370;SDS011;16357;52.188;7.838;2022-07-11T05:00:16;2.17;;;1.98;;
29370;SDS011;16357;52.188;7.838;2022-07-11T05:02:42;2.88;;;2.10;;
29370;SDS011;16357;52.188;7.838;2022-07-11T05:05:21;3.13;;;2.25;;
29370;SDS011;16357;52.188;7.838;2022-07-11T05:07:50;4.65;;;2.45;;
29370;SDS011;16357;52.188;7.838;2022-07-11T05:10:16;4.57;;;2.33;;
29370;SDS011;16357;52.188;7.838;2022-07-11T05:12:43;4.10;;;2.30;;
29370;SDS011;16357;52.188;7.838;2022-07-11T05:15:10;3.67;;;2.78;;
29370;SDS011;16357;52.188;7.838;2022-07-11T05:17:37;3.17;;;1.98;;
29370;SDS011;16357;52.188;7.838;2022-07-11T05:20:11;3.67;;;2.28;;
29370;SDS011;16357;52.188;7.838;2022-07-11T05:22:38;4.10;;;2.28;;
29370;SDS011;16357;52.188;7.838;2022-07-11T05:25:04;3.60;;;2.05;;
29370;SDS011;16357;52.188;7.838;2022-07-11T05:27:31;3.47;;;2.03;;
29370;SDS011;16357;52.188;7.838;2022-07-11T05:29:58;5.93;;;2.28;;
29370;SDS011;16357;52.188;7.838;2022-07-11T05:32:24;2.53;;;1.67;;
29370;SDS011;16357;52.188;7.838;2022-07-11T05:34:50;2.75;;;1.65;;
29370;SDS011;16357;52.188;7.838;2022-07-11T05:37:17;3.88;;;2.28;;
29370;SDS011;16357;52.188;7.838;2022-07-11T05:39:43;4.40;;;1.70;;
29370;SDS011;16357;52.188;7.838;2022-07-11T05:42:10;4.03;;;2.05;;
29370;SDS011;16357;52.188;7.838;2022-07-11T05:44:36;3.75;;;1.80;;
29370;SDS011;16357;52.188;7.838;2022-07-11T05:47:03;4.75;;;1.73;;
29370;SDS011;16357;52.188;7.838;2022-07-11T05:49:30;3.00;;;1.83;;
29370;SDS011;16357;52.188;7.838;2022-07-11T05:51:58;2.97;;;2.20;;
29370;SDS011;16357;52.188;7.838;2022-07-11T05:54:25;6.35;;;2.40;;
29370;SDS011;16357;52.188;7.838;2022-07-11T05:56:52;3.25;;;2.30;;
29370;SDS011;16357;52.188;7.838;2022-07-11T05:59:18;2.95;;;2.38;;
29370;SDS011;16357;52.188;7.838;2022-07-11T06:01:45;5.07;;;2.40;;
29370;SDS011;16357;52.188;7.838;2022-07-11T06:04:13;3.90;;;2.33;;
29370;SDS011;16357;52.188;7.838;2022-07-11T06:06:40;5.55;;;2.83;;
29370;SDS011;16357;52.188;7.838;2022-07-11T06:09:06;3.88;;;3.00;;
29370;SDS011;16357;52.188;7.838;2022-07-11T06:11:33;5.95;;;3.13;;
29370;SDS011;16357;52.188;7.838;2022-07-11T06:13:59;5.15;;;2.67;;
29370;SDS011;16357;52.188;7.838;2022-07-11T06:16:26;4.15;;;2.67;;
29370;SDS011;16357;52.188;7.838;2022-07-11T06:18:53;3.58;;;2.65;;
29370;SDS011;16357;52.188;7.838;2022-07-11T06:21:20;2.05;;;1.65;;
29370;SDS011;16357;52.188;7.838;2022-07-11T06:23:47;1.70;;;1.50;;
29370;SDS011;16357;52.188;7.838;2022-07-11T06:26:14;3.55;;;1.60;;
29370;SDS011;16357;52.188;7.838;2022-07-11T06:28:41;2.67;;;1.60;;
29370;SDS011;16357;52.188;7.838;2022-07-11T06:31:08;2.72;;;1.50;;
29370;SDS011;16357;52.188;7.838;2022-07-11T06:33:35;1.52;;;1.40;;
29370;SDS011;16357;52.188;7.838;2022-07-11T06:36:03;2.63;;;1.70;;
29370;SDS011;16357;52.188;7.838;2022-07-11T06:38:31;2.65;;;1.52;;
29370;SDS011;16357;52.188;7.838;2022-07-11T06:40:58;2.10;;;1.67;;
29370;SDS011;16357;52.188;7.838;2022-07-11T06:43:25;3.15;;;2.20;;
29370;SDS011;16357;52.188;7.838;2022-07-11T06:45:51;2.80;;;2.25;;
29370;SDS011;16357;52.188;7.838;2022-07-11T06:48:18;4.43;;;1.88;;
29370;SDS011;16357;52.188;7.838;2022-07-11T06:50:47;3.63;;;2.20;;
29370;SDS011;16357;52.188;7.838;2022-07-11T06:53:14;2.80;;;2.08;;
29370;SDS011;16357;52.188;7.838;2022-07-11T06:55:41;3.15;;;2.10;;
29370;SDS011;16357;52.188;7.838;2022-07-11T06:58:07;2.00;;;1.85;;
29370;SDS011;16357;52.188;7.838;2022-07-11T07:00:50;2.83;;;2.00;;
29370;SDS011;16357;52.188;7.838;2022-07-11T07:03:17;2.83;;;2.00;;
29370;SDS011;16357;52.188;7.838;2022-07-11T07:05:46;1.98;;;1.52;;
29370;SDS011;16357;52.188;7.838;2022-07-11T07:08:13;3.00;;;1.45;;
29370;SDS011;16357;52.188;7.838;2022-07-11T07:10:39;1.70;;;1.38;;
29370;SDS011;16357;52.188;7.838;2022-07-11T07:13:06;2.80;;;1.50;;
29370;SDS011;16357;52.188;7.838;2022-07-11T07:15:32;1.83;;;1.40;;
29370;SDS011;16357;52.188;7.838;2022-07-11T07:17:59;1.73;;;1.40;;
29370;SDS011;16357;52.188;7.838;2022-07-11T07:20:29;2.15;;;1.52;;
29370;SDS011;16357;52.188;7.838;2022-07-11T07:22:56;3.97;;;1.33;;
29370;SDS011;16357;52.188;7.838;2022-07-11T07:25:22;2.55;;;1.30;;
29370;SDS011;16357;52.188;7.838;2022-07-11T07:27:49;2.03;;;1.13;;
29370;SDS011;16357;52.188;7.838;2022-07-11T07:30:16;1.85;;;1.08;;
29370;SDS011;16357;52.188;7.838;2022-07-11T07:32:42;1.92;;;1.13;;
29370;SDS011;16357;52.188;7.838;2022-07-11T07:35:09;1.40;;;1.10;;
29370;SDS011;16357;52.188;7.838;2022-07-11T07:37:35;1.75;;;1.35;;
29370;SDS011;16357;52.188;7.838;2022-07-11T07:40:02;1.58;;;1.40;;
29370;SDS011;16357;52.188;7.838;2022-07-11T07:42:29;1.85;;;1.20;;
29370;SDS011;16357;52.188;7.838;2022-07-11T07:44:56;2.58;;;1.30;;
29370;SDS011;16357;52.188;7.838;2022-07-11T07:47:22;1.65;;;1.10;;
29370;SDS011;16357;52.188;7.838;2022-07-11T07:49:49;1.17;;;1.08;;
29370;SDS011;16357;52.188;7.838;2022-07-11T07:52:15;2.28;;;1.10;;
29370;SDS011;16357;52.188;7.838;2022-07-11T07:54:43;1.83;;;1.10;;
29370;SDS011;16357;52.188;7.838;2022-07-11T07:57:09;1.10;;;1.00;;
29370;SDS011;16357;52.188;7.838;2022-07-11T07:59:36;2.78;;;1.15;;
29370;SDS011;16357;52.188;7.838;2022-07-11T08:02:02;1.33;;;1.20;;
29370;SDS011;16357;52.188;7.838;2022-07-11T08:04:30;1.05;;;0.88;;
29370;SDS011;16357;52.188;7.838;2022-07-11T08:06:56;0.88;;;0.80;;
29370;SDS011;16357;52.188;7.838;2022-07-11T08:09:25;0.85;;;0.80;;
29370;SDS011;16357;52.188;7.838;2022-07-11T08:11:53;1.10;;;1.00;;
29370;SDS011;16357;52.188;7.838;2022-07-11T08:14:20;1.25;;;0.90;;
29370;SDS011;16357;52.188;7.838;2022-07-11T08:16:46;0.70;;;0.70;;
29370;SDS011;16357;52.188;7.838;2022-07-11T08:19:14;1.92;;;0.55;;
29370;SDS011;16357;52.188;7.838;2022-07-11T08:21:41;1.73;;;1.00;;
29370;SDS011;16357;52.188;7.838;2022-07-11T08:24:08;0.70;;;0.70;;
29370;SDS011;16357;52.188;7.838;2022-07-11T08:26:34;0.88;;;0.70;;
29370;SDS011;16357;52.188;7.838;2022-07-11T08:29:01;3.70;;;1.25;;
29370;SDS011;16357;52.188;7.838;2022-07-11T08:31:29;1.65;;;1.30;;
29370;SDS011;16357;52.188;7.838;2022-07-11T08:33:56;1.23;;;1.13;;
29370;SDS011;16357;52.188;7.838;2022-07-11T08:36:25;1.33;;;1.20;;
29370;SDS011;16357;52.188;7.838;2022-07-11T08:38:54;1.33;;;1.20;;
29370;SDS011;16357;52.188;7.838;2022-07-11T08:41:21;1.42;;;1.30;;
29370;SDS011;16357;52.188;7.838;2022-07-11T08:43:47;2.63;;;1.42;;
29370;SDS011;16357;52.188;7.838;2022-07-11T08:46:15;2.03;;;1.40;;
29370;SDS011;16357;52.188;7.838;2022-07-11T08:48:43;3.40;;;1.30;;
29370;SDS011;16357;52.188;7.838;2022-07-11T08:51:10;1.35;;;1.00;;
29370;SDS011;16357;52.188;7.838;2022-07-11T08:53:42;1.15;;;1.05;;
29370;SDS011;16357;52.188;7.838;2022-07-11T08:56:11;1.65;;;1.38;;
29370;SDS011;16357;52.188;7.838;2022-07-11T08:58:44;2.00;;;1.20;;
29370;SDS011;16357;52.188;7.838;2022-07-11T09:03:51;0.75;;;0.75;;
29370;SDS011;16357;52.188;7.838;2022-07-11T09:06:18;2.05;;;0.90;;
29370;SDS011;16357;52.188;7.838;2022-07-11T09:08:44;1.10;;;0.80;;
29370;SDS011;16357;52.188;7.838;2022-07-11T09:11:11;1.52;;;0.80;;
29370;SDS011;16357;52.188;7.838;2022-07-11T09:13:37;0.93;;;0.85;;
29370;SDS011;16357;52.188;7.838;2022-07-11T09:16:05;0.85;;;0.60;;
29370;SDS011;16357;52.188;7.838;2022-07-11T09:18:36;1.02;;;0.80;;
29370;SDS011;16357;52.188;7.838;2022-07-11T09:23:51;0.80;;;0.80;;
29370;SDS011;16357;52.188;7.838;2022-07-11T09:26:38;1.40;;;1.17;;
29370;SDS011;16357;52.188;7.838;2022-07-11T09:29:10;1.42;;;1.33;;
29370;SDS011;16357;52.188;7.838;2022-07-11T09:31:39;1.40;;;1.30;;
29370;SDS011;16357;52.188;7.838;2022-07-11T09:34:09;1.90;;;1.60;;
29370;SDS011;16357;52.188;7.838;2022-07-11T09:39:09;1.20;;;1.10;;
29370;SDS011;16357;52.188;7.838;2022-07-11T09:41:37;0.90;;;0.90;;
29370;SDS011;16357;52.188;7.838;2022-07-11T09:46:51;1.30;;;1.20;;
29370;SDS011;16357;52.188;7.838;2022-07-11T09:52:14;1.33;;;1.05;;
29370;SDS011;16357;52.188;7.838;2022-07-11T09:54:52;1.25;;;0.90;;
29370;SDS011;16357;52.188;7.838;2022-07-11T09:57:18;1.05;;;0.93;;
29370;SDS011;16357;52.188;7.838;2022-07-11T09:59:45;1.17;;;1.08;;
29370;SDS011;16357;52.188;7.838;2022-07-11T10:02:21;2.63;;;1.20;;
29370;SDS011;16357;52.188;7.838;2022-07-11T10:05:00;1.10;;;1.00;;
29370;SDS011;16357;52.188;7.838;2022-07-11T10:07:28;1.05;;;1.00;;
29370;SDS011;16357;52.188;7.838;2022-07-11T10:09:56;1.50;;;1.10;;
29370;SDS011;16357;52.188;7.838;2022-07-11T10:12:25;1.00;;;0.90;;
29370;SDS011;16357;52.188;7.838;2022-07-11T10:14:53;1.70;;;1.40;;
29370;SDS011;16357;52.188;7.838;2022-07-11T10:17:26;1.50;;;1.40;;
29370;SDS011;16357;52.188;7.838;2022-07-11T10:20:02;2.05;;;1.63;;
29370;SDS011;16357;52.188;7.838;2022-07-11T10:25:37;1.50;;;1.40;;
29370;SDS011;16357;52.188;7.838;2022-07-11T10:28:22;1.95;;;1.30;;
29370;SDS011;16357;52.188;7.838;2022-07-11T10:31:01;1.35;;;1.17;;
29370;SDS011;16357;52.188;7.838;2022-07-11T10:33:28;1.58;;;1.48;;
29370;SDS011;16357;52.188;7.838;2022-07-11T10:35:55;2.15;;;1.95;;
29370;SDS011;16357;52.188;7.838;2022-07-11T10:38:23;2.10;;;1.70;;
29370;SDS011;16357;52.188;7.838;2022-07-11T10:40:57;2.80;;;1.67;;
29370;SDS011;16357;52.188;7.838;2022-07-11T10:46:01;3.50;;;3.20;;
29370;SDS011;16357;52.188;7.838;2022-07-11T10:48:31;2.85;;;2.65;;
29370;SDS011;16357;52.188;7.838;2022-07-11T10:53:33;2.45;;;2.25;;
29370;SDS011;16357;52.188;7.838;2022-07-11T10:59:20;4.20;;;2.90;;
29370;SDS011;16357;52.188;7.838;2022-07-11T11:10:03;1.90;;;1.60;;
29370;SDS011;16357;52.188;7.838;2022-07-11T11:23:23;1.25;;;1.15;;
29370;SDS011;16357;52.188;7.838;2022-07-11T11:25:51;1.30;;;1.20;;
29370;SDS011;16357;52.188;7.838;2022-07-11T11:28:21;1.40;;;1.30;;
29370;SDS011;16357;52.188;7.838;2022-07-11T11:30:58;0.80;;;0.80;;
29370;SDS011;16357;52.188;7.838;2022-07-11T11:33:29;1.40;;;0.90;;
29370;SDS011;16357;52.188;7.838;2022-07-11T11:36:08;0.80;;;0.77;;
29370;SDS011;16357;52.188;7.838;2022-07-11T11:38:36;1.75;;;0.82;;
29370;SDS011;16357;52.188;7.838;2022-07-11T11:41:06;0.82;;;0.73;;
29370;SDS011;16357;52.188;7.838;2022-07-11T11:43:34;0.80;;;0.70;;
29370;SDS011;16357;52.188;7.838;2022-07-11T11:46:02;1.67;;;0.98;;
29370;SDS011;16357;52.188;7.838;2022-07-11T11:48:29;0.95;;;0.93;;
29370;SDS011;16357;52.188;7.838;2022-07-11T11:51:09;1.40;;;1.20;;
29370;SDS011;16357;52.188;7.838;2022-07-11T11:53:37;1.35;;;1.17;;
29370;SDS011;16357;52.188;7.838;2022-07-11T11:58:45;1.85;;;1.20;;
29370;SDS011;16357;52.188;7.838;2022-07-11T12:01:12;1.27;;;1.02;;
29370;SDS011;16357;52.188;7.838;2022-07-11T12:03:48;1.83;;;1.27;;
29370;SDS011;16357;52.188;7.838;2022-07-11T12:06:16;1.40;;;1.30;;
29370;SDS011;16357;52.188;7.838;2022-07-11T12:08:46;1.20;;;1.10;;
29370;SDS011;16357;52.188;7.838;2022-07-11T12:11:13;1.50;;;1.20;;
29370;SDS011;16357;52.188;7.838;2022-07-11T12:13:40;1.25;;;1.15;;
29370;SDS011;16357;52.188;7.838;2022-07-11T12:16:14;1.30;;;1.20;;
29370;SDS011;16357;52.188;7.838;2022-07-11T12:19:01;2.17;;;1.98;;
29370;SDS011;16357;52.188;7.838;2022-07-11T12:21:29;2.10;;;1.85;;
29370;SDS011;16357;52.188;7.838;2022-07-11T12:23:58;1.45;;;1.33;;
29370;SDS011;16357;52.188;7.838;2022-07-11T12:26:29;1.35;;;1.25;;
29370;SDS011;16357;52.188;7.838;2022-07-11T12:29:05;1.40;;;1.20;;
29370;SDS011;16357;52.188;7.838;2022-07-11T12:32:11;1.40;;;1.30;;
29370;SDS011;16357;52.188;7.838;2022-07-11T12:37:13;1.65;;;1.55;;
29370;SDS011;16357;52.188;7.838;2022-07-11T12:39:47;1.42;;;1.33;;
29370;SDS011;16357;52.188;7.838;2022-07-11T12:42:21;1.67;;;1.58;;
29370;SDS011;16357;52.188;7.838;2022-07-11T12:44:59;2.72;;;1.45;;
29370;SDS011;16357;52.188;7.838;2022-07-11T12:47:38;2.20;;;1.98;;
29370;SDS011;16357;52.188;7.838;2022-07-11T12:52:46;2.33;;;2.13;;
29370;SDS011;16357;52.188;7.838;2022-07-11T13:00:30;2.03;;;1.83;;
29370;SDS011;16357;52.188;7.838;2022-07-11T13:02:58;2.10;;;1.90;;
29370;SDS011;16357;52.188;7.838;2022-07-11T13:05:25;3.63;;;1.70;;
29370;SDS011;16357;52.188;7.838;2022-07-11T13:07:52;2.47;;;1.98;;
29370;SDS011;16357;52.188;7.838;2022-07-11T13:10:37;2.95;;;2.75;;
29370;SDS011;16357;52.188;7.838;2022-07-11T13:13:31;3.63;;;3.08;;
29370;SDS011;16357;52.188;7.838;2022-07-11T13:15:58;3.35;;;3.03;;
29370;SDS011;16357;52.188;7.838;2022-07-11T13:18:25;3.13;;;2.85;;
29370;SDS011;16357;52.188;7.838;2022-07-11T13:20:52;2.50;;;2.30;;
29370;SDS011;16357;52.188;7.838;2022-07-11T13:23:20;2.50;;;2.13;;
29370;SDS011;16357;52.188;7.838;2022-07-11T13:25:47;1.95;;;1.80;;
29370;SDS011;16357;52.188;7.838;2022-07-11T13:28:14;1.73;;;1.63;;
29370;SDS011;16357;52.188;7.838;2022-07-11T13:30:41;1.67;;;1.30;;
29370;SDS011;16357;52.188;7.838;2022-07-11T13:33:28;0.93;;;0.82;;
29370;SDS011;16357;52.188;7.838;2022-07-11T13:35:54;1.00;;;0.90;;
29370;SDS011;16357;52.188;7.838;2022-07-11T13:38:23;1.55;;;1.00;;
29370;SDS011;16357;52.188;7.838;2022-07-11T13:40:50;1.73;;;0.90;;
29370;SDS011;16357;52.188;7.838;2022-07-11T13:43:17;0.80;;;0.77;;
29370;SDS011;16357;52.188;7.838;2022-07-11T13:45:43;0.80;;;0.75;;
29370;SDS011;16357;52.188;7.838;2022-07-11T13:48:11;1.00;;;0.90;;
29370;SDS011;16357;52.188;7.838;2022-07-11T13:50:37;1.13;;;0.90;;
29370;SDS011;16357;52.188;7.838;2022-07-11T13:53:04;0.85;;;0.80;;
29370;SDS011;16357;52.188;7.838;2022-07-11T13:55:37;1.00;;;0.90;;
29370;SDS011;16357;52.188;7.838;2022-07-11T13:58:03;1.85;;;1.00;;
29370;SDS011;16357;52.188;7.838;2022-07-11T14:00:30;1.10;;;1.00;;
29370;SDS011;16357;52.188;7.838;2022-07-11T14:02:58;2.08;;;1.10;;
29370;SDS011;16357;52.188;7.838;2022-07-11T14:05:24;2.15;;;1.05;;
29370;SDS011;16357;52.188;7.838;2022-07-11T14:07:51;1.77;;;1.10;;
29370;SDS011;16357;52.188;7.838;2022-07-11T14:10:19;1.00;;;0.90;;
29370;SDS011;16357;52.188;7.838;2022-07-11T14:12:52;1.73;;;1.08;;
29370;SDS011;16357;52.188;7.838;2022-07-11T14:15:18;1.42;;;1.17;;
29370;SDS011;16357;52.188;7.838;2022-07-11T14:17:45;2.45;;;1.30;;
29370;SDS011;16357;52.188;7.838;2022-07-11T14:20:12;1.65;;;1.30;;
29370;SDS011;16357;52.188;7.838;2022-07-11T14:22:38;1.73;;;1.30;;
29370;SDS011;16357;52.188;7.838;2022-07-11T14:25:06;2.55;;;1.23;;
29370;SDS011;16357;52.188;7.838;2022-07-11T14:27:34;1.80;;;1.20;;
29370;SDS011;16357;52.188;7.838;2022-07-11T14:30:06;1.95;;;1.40;;
29370;SDS011;16357;52.188;7.838;2022-07-11T14:32:34;2.88;;;1.25;;
29370;SDS011;16357;52.188;7.838;2022-07-11T14:35:01;1.27;;;1.17;;
29370;SDS011;16357;52.188;7.838;2022-07-11T14:37:28;1.75;;;1.17;;
29370;SDS011;16357;52.188;7.838;2022-07-11T14:39:54;2.20;;;1.20;;
29370;SDS011;16357;52.188;7.838;2022-07-11T14:42:20;1.63;;;1.30;;
29370;SDS011;16357;52.188;7.838;2022-07-11T14:45:06;1.60;;;1.42;;
29370;SDS011;16357;52.188;7.838;2022-07-11T14:47:33;1.33;;;0.95;;
29370;SDS011;16357;52.188;7.838;2022-07-11T14:50:00;1.27;;;1.10;;
29370;SDS011;16357;52.188;7.838;2022-07-11T14:52:28;1.10;;;1.00;;
29370;SDS011;16357;52.188;7.838;2022-07-11T14:54:54;1.15;;;1.02;;
29370;SDS011;16357;52.188;7.838;2022-07-11T14:57:21;1.33;;;1.10;;
29370;SDS011;16357;52.188;7.838;2022-07-11T14:59:48;1.50;;;1.20;;
29370;SDS011;16357;52.188;7.838;2022-07-11T15:02:14;1.38;;;1.10;;
29370;SDS011;16357;52.188;7.838;2022-07-11T15:04:41;1.48;;;1.10;;
29370;SDS011;16357;52.188;7.838;2022-07-11T15:07:12;1.10;;;0.80;;
29370;SDS011;16357;52.188;7.838;2022-07-11T15:09:57;1.15;;;0.90;;
29370;SDS011;16357;52.188;7.838;2022-07-11T15:12:42;1.90;;;1.00;;
29370;SDS011;16357;52.188;7.838;2022-07-11T15:15:09;1.23;;;0.82;;
29370;SDS011;16357;52.188;7.838;2022-07-11T15:17:35;1.42;;;1.10;;
29370;SDS011;16357;52.188;7.838;2022-07-11T15:20:02;1.10;;;1.00;;
29370;SDS011;16357;52.188;7.838;2022-07-11T15:22:28;1.35;;;1.00;;
29370;SDS011;16357;52.188;7.838;2022-07-11T15:24:55;1.45;;;1.20;;
29370;SDS011;16357;52.188;7.838;2022-07-11T15:27:21;1.25;;;1.15;;
29370;SDS011;16357;52.188;7.838;2022-07-11T15:29:48;1.50;;;1.23;;
29370;SDS011;16357;52.188;7.838;2022-07-11T15:32:15;1.30;;;1.17;;
29370;SDS011;16357;52.188;7.838;2022-07-11T15:34:41;1.00;;;0.90;;
29370;SDS011;16357;52.188;7.838;2022-07-11T15:37:13;1.63;;;1.00;;
29370;SDS011;16357;52.188;7.838;2022-07-11T15:39:39;1.10;;;0.93;;
29370;SDS011;16357;52.188;7.838;2022-07-11T15:42:06;1.30;;;0.73;;
29370;SDS011;16357;52.188;7.838;2022-07-11T15:44:33;0.95;;;0.70;;
29370;SDS011;16357;52.188;7.838;2022-07-11T15:47:00;0.80;;;0.80;;
29370;SDS011;16357;52.188;7.838;2022-07-11T15:49:27;0.70;;;0.70;;
29370;SDS011;16357;52.188;7.838;2022-07-11T15:51:54;0.85;;;0.82;;